createdAt,value
2022-09-27T00:01:13.069Z,19.83
2022-09-27T00:03:40.723Z,19.47
2022-09-27T00:06:16.702Z,25.70
2022-09-27T00:08:43.844Z,21.20
2022-09-27T00:11:33.324Z,21.27
2022-09-27T00:14:01.008Z,27.10
2022-09-27T00:16:31.234Z,25.37
2022-09-27T00:19:02.661Z,23.30
2022-09-27T00:21:30.802Z,25.90
2022-09-27T00:23:59.465Z,25.17
2022-09-27T00:26:26.646Z,30.37
2022-09-27T00:28:53.895Z,25.83
2022-09-27T00:31:29.402Z,27.10
2022-09-27T00:33:58.901Z,26.03
2022-09-27T00:36:26.677Z,27.23
2022-09-27T00:38:53.764Z,29.20
2022-09-27T00:41:35.750Z,35.57
2022-09-27T00:44:26.073Z,28.80
2022-09-27T00:47:22.179Z,27.70
2022-09-27T00:50:15.335Z,32.57
2022-09-27T00:52:52.716Z,28.50
2022-09-27T00:55:30.408Z,38.23
2022-09-27T00:57:57.793Z,30.80
2022-09-27T01:00:24.784Z,31.77
2022-09-27T01:02:55.187Z,32.77
2022-09-27T01:05:25.919Z,35.83
2022-09-27T01:07:56.767Z,39.93
2022-09-27T01:10:25.524Z,41.27
2022-09-27T01:13:04.816Z,34.43
2022-09-27T01:15:45.466Z,37.73
2022-09-27T01:18:35.701Z,31.37
2022-09-27T01:21:08.913Z,30.60
2022-09-27T01:23:55.494Z,29.63
2022-09-27T01:26:29.659Z,40.23
2022-09-27T01:29:31.184Z,38.07
2022-09-27T01:32:05.418Z,37.60
2022-09-27T01:34:39.926Z,33.20
2022-09-27T01:37:25.476Z,34.60
2022-09-27T01:40:44.742Z,31.10
2022-09-27T01:43:54.760Z,37.87
2022-09-27T01:46:39.875Z,36.93
2022-09-27T01:49:14.491Z,37.43
2022-09-27T01:52:04.135Z,33.53
2022-09-27T01:54:43.897Z,25.90
2022-09-27T01:57:13.709Z,31.07
2022-09-27T01:59:58.344Z,36.80
2022-09-27T02:02:28.558Z,30.90
2022-09-27T02:05:01.268Z,32.00
2022-09-27T02:07:49.652Z,38.27
2022-09-27T02:10:21.960Z,33.43
2022-09-27T02:13:15.861Z,35.37
2022-09-27T02:15:58.225Z,35.10
2022-09-27T02:18:47.723Z,30.20
2022-09-27T02:21:18.195Z,30.43
2022-09-27T02:23:51.245Z,30.90
2022-09-27T02:26:27.720Z,34.37
2022-09-27T02:29:20.438Z,33.50
2022-09-27T02:31:47.329Z,31.90
2022-09-27T02:34:22.463Z,37.10
2022-09-27T02:36:50.466Z,34.33
2022-09-27T02:39:18.508Z,36.20
2022-09-27T02:41:45.371Z,33.47
2022-09-27T02:44:15.002Z,37.27
2022-09-27T02:47:08.481Z,36.83
2022-09-27T02:49:57.203Z,37.93
2022-09-27T02:52:50.079Z,40.47
2022-09-27T02:55:45.797Z,31.13
2022-09-27T02:59:25.651Z,29.53
2022-09-27T03:02:13.809Z,38.40
2022-09-27T03:04:44.107Z,41.10
2022-09-27T03:07:12.738Z,34.80
2022-09-27T03:09:49.143Z,40.70
2022-09-27T03:12:25.998Z,37.80
2022-09-27T03:14:58.019Z,42.30
2022-09-27T03:17:25.258Z,41.33
2022-09-27T03:19:52.647Z,37.33
2022-09-27T03:22:19.509Z,39.37
2022-09-27T03:24:46.888Z,39.87
2022-09-27T03:27:13.839Z,41.33
2022-09-27T03:29:40.687Z,38.43
2022-09-27T03:32:07.745Z,38.80
2022-09-27T03:34:34.515Z,44.90
2022-09-27T03:37:02.051Z,42.87
2022-09-27T03:39:28.826Z,46.27
2022-09-27T03:41:55.592Z,41.47
2022-09-27T03:44:22.405Z,43.17
2022-09-27T03:46:49.257Z,47.43
2022-09-27T03:49:16.200Z,42.27
2022-09-27T03:51:43.191Z,44.63
2022-09-27T03:54:10.243Z,40.53
2022-09-27T03:56:37.027Z,45.20
2022-09-27T03:59:03.873Z,44.43
2022-09-27T04:01:30.800Z,41.43
2022-09-27T04:03:57.600Z,42.60
2022-09-27T04:06:24.544Z,45.53
2022-09-27T04:08:51.321Z,50.10
2022-09-27T04:11:18.170Z,42.97
2022-09-27T04:13:45.172Z,47.23
2022-09-27T04:16:12.008Z,41.80
2022-09-27T04:18:38.837Z,49.17
2022-09-27T04:21:05.716Z,43.17
2022-09-27T04:23:32.508Z,55.63
2022-09-27T04:25:59.292Z,40.60
2022-09-27T04:28:26.094Z,42.87
2022-09-27T04:30:54.269Z,45.03
2022-09-27T04:33:21.562Z,46.00
2022-09-27T04:36:07.211Z,41.57
2022-09-27T04:38:34.024Z,44.00
2022-09-27T04:41:02.140Z,44.07
2022-09-27T04:43:30.207Z,41.03
2022-09-27T04:45:57.180Z,47.43
2022-09-27T04:48:24.604Z,43.67
2022-09-27T04:50:59.053Z,40.90
2022-09-27T04:53:26.474Z,46.33
2022-09-27T04:55:54.910Z,43.80
2022-09-27T04:58:23.072Z,41.23
2022-09-27T05:00:54.597Z,41.57
2022-09-27T05:03:22.249Z,38.70
2022-09-27T05:05:49.093Z,44.60
2022-09-27T05:08:15.895Z,42.47
2022-09-27T05:10:42.674Z,40.17
2022-09-27T05:13:09.806Z,37.90
2022-09-27T05:15:36.538Z,40.90
2022-09-27T05:18:03.504Z,45.77
2022-09-27T05:20:30.364Z,37.93
2022-09-27T05:22:57.189Z,41.37
2022-09-27T05:25:24.084Z,37.73
2022-09-27T05:27:51.233Z,36.77
2022-09-27T05:30:18.290Z,37.97
2022-09-27T05:32:50.243Z,34.60
2022-09-27T05:35:19.327Z,33.90
2022-09-27T05:38:00.255Z,26.43
2022-09-27T05:40:42.804Z,27.10
2022-09-27T05:43:10.128Z,31.50
2022-09-27T05:45:37.211Z,32.13
2022-09-27T05:48:05.273Z,33.30
2022-09-27T05:50:32.832Z,29.63
2022-09-27T05:52:59.619Z,32.80
2022-09-27T05:55:26.608Z,36.53
2022-09-27T05:58:07.766Z,24.60
2022-09-27T06:00:35.808Z,28.13
2022-09-27T06:03:06.401Z,25.20
2022-09-27T06:05:36.787Z,22.30
2022-09-27T06:08:09.625Z,22.70
2022-09-27T06:10:37.057Z,23.03
2022-09-27T06:13:07.801Z,21.60
2022-09-27T06:15:37.833Z,23.47
2022-09-27T06:18:13.348Z,24.17
2022-09-27T06:20:42.986Z,24.60
2022-09-27T06:23:22.532Z,23.70
2022-09-27T06:25:50.973Z,25.47
2022-09-27T06:28:18.468Z,24.80
2022-09-27T06:30:48.011Z,27.47
2022-09-27T06:33:20.046Z,23.70
2022-09-27T06:35:48.828Z,29.00
2022-09-27T06:38:17.482Z,29.53
2022-09-27T06:40:48.110Z,25.93
2022-09-27T06:43:17.261Z,33.07
2022-09-27T06:45:44.359Z,26.33
2022-09-27T06:48:13.281Z,26.23
2022-09-27T06:50:42.171Z,25.60
2022-09-27T06:53:13.112Z,30.43
2022-09-27T06:55:40.632Z,25.47
2022-09-27T06:58:28.493Z,32.93
2022-09-27T07:00:55.477Z,36.33
2022-09-27T07:03:23.926Z,27.80
2022-09-27T07:05:59.064Z,27.37
2022-09-27T07:08:28.765Z,29.80
2022-09-27T07:11:01.003Z,30.87
2022-09-27T07:13:34.480Z,33.13
2022-09-27T07:16:01.881Z,25.90
2022-09-27T07:18:29.121Z,30.23
2022-09-27T07:21:00.138Z,30.10
2022-09-27T07:23:27.679Z,34.23
2022-09-27T07:25:54.650Z,31.77
2022-09-27T07:28:22.240Z,28.13
2022-09-27T07:30:49.774Z,29.60
2022-09-27T07:33:16.697Z,25.13
2022-09-27T07:35:43.858Z,29.00
2022-09-27T07:38:16.588Z,25.57
2022-09-27T07:40:44.189Z,29.00
2022-09-27T07:43:12.299Z,24.30
2022-09-27T07:45:39.737Z,27.10
2022-09-27T07:48:08.104Z,22.60
2022-09-27T07:50:35.343Z,26.57
2022-09-27T07:53:02.432Z,21.90
2022-09-27T07:55:29.261Z,23.53
2022-09-27T07:58:08.839Z,24.37
2022-09-27T08:00:37.227Z,27.27
2022-09-27T08:03:06.968Z,25.73
2022-09-27T08:05:35.956Z,32.20
2022-09-27T08:08:03.853Z,23.93
2022-09-27T08:10:34.617Z,20.80
2022-09-27T08:13:03.626Z,21.63
2022-09-27T08:15:36.244Z,23.27
2022-09-27T08:18:03.065Z,24.27
2022-09-27T08:20:29.868Z,25.23
2022-09-27T08:22:56.869Z,23.60
2022-09-27T08:25:24.593Z,25.30
2022-09-27T08:27:58.754Z,20.20
2022-09-27T08:30:26.224Z,29.50
2022-09-27T08:32:57.321Z,21.00
2022-09-27T08:35:24.267Z,23.97
2022-09-27T08:37:59.926Z,21.90
2022-09-27T08:40:57.220Z,22.20
2022-09-27T08:43:45.521Z,26.40
2022-09-27T08:47:05.177Z,21.63
2022-09-27T08:49:39.816Z,23.87
2022-09-27T08:52:13.287Z,22.60
2022-09-27T08:54:40.364Z,26.87
2022-09-27T08:57:12.804Z,34.17
2022-09-27T09:00:11.138Z,22.70
2022-09-27T09:02:38.247Z,21.20
2022-09-27T09:05:17.418Z,26.47
2022-09-27T09:08:10.066Z,25.90
2022-09-27T09:11:04.773Z,29.53
2022-09-27T09:13:40.886Z,20.90
2022-09-27T09:16:17.108Z,23.23
2022-09-27T09:19:00.577Z,25.33
2022-09-27T09:21:48.435Z,22.30
2022-09-27T09:24:29.780Z,23.50
2022-09-27T09:27:35.838Z,25.73
2022-09-27T09:30:23.056Z,24.13
2022-09-27T09:33:11.118Z,29.00
2022-09-27T09:35:58.963Z,30.57
2022-09-27T09:39:11.196Z,26.73
2022-09-27T09:42:02.423Z,27.23
2022-09-27T09:44:45.483Z,22.50
2022-09-27T09:47:30.813Z,24.67
2022-09-27T09:50:03.701Z,21.93
2022-09-27T09:52:41.704Z,23.00
2022-09-27T09:55:19.187Z,23.00
2022-09-27T09:57:59.834Z,17.90
2022-09-27T10:00:27.021Z,23.53
2022-09-27T10:02:59.067Z,20.00
2022-09-27T10:05:28.392Z,20.83
2022-09-27T10:07:59.308Z,22.47
2022-09-27T10:10:26.909Z,23.47
2022-09-27T10:12:53.972Z,23.90
2022-09-27T10:15:23.640Z,23.20
2022-09-27T10:17:53.829Z,20.37
2022-09-27T10:20:42.220Z,23.43
2022-09-27T10:23:25.236Z,21.27
2022-09-27T10:26:03.824Z,26.40
2022-09-27T10:28:33.017Z,22.20
2022-09-27T10:31:02.995Z,24.23
2022-09-27T10:33:31.801Z,18.93
2022-09-27T10:36:00.130Z,20.30
2022-09-27T10:38:37.360Z,25.57
2022-09-27T10:41:29.055Z,20.33
2022-09-27T10:43:55.923Z,20.40
2022-09-27T10:46:27.909Z,20.90
2022-09-27T10:49:16.400Z,21.63
2022-09-27T10:51:44.381Z,22.30
2022-09-27T10:54:34.610Z,19.97
2022-09-27T10:57:05.941Z,19.90
2022-09-27T10:59:39.429Z,19.70
2022-09-27T11:02:19.642Z,18.43
2022-09-27T11:05:27.887Z,22.47
2022-09-27T11:07:56.717Z,17.70
2022-09-27T11:10:29.111Z,18.50
2022-09-27T11:13:14.516Z,19.30
2022-09-27T11:16:06.056Z,20.30
2022-09-27T11:19:01.196Z,20.77
2022-09-27T11:22:19.869Z,20.60
2022-09-27T11:24:49.701Z,19.77
2022-09-27T11:27:28.757Z,17.77
2022-09-27T11:30:10.136Z,18.93
2022-09-27T11:32:37.021Z,17.13
2022-09-27T11:35:32.647Z,21.10
2022-09-27T11:38:34.545Z,15.67
2022-09-27T11:41:32.468Z,17.90
2022-09-27T11:44:18.019Z,16.50
2022-09-27T11:47:09.307Z,17.70
2022-09-27T11:50:13.495Z,16.17
2022-09-27T11:53:01.644Z,15.57
2022-09-27T11:55:51.623Z,15.70
2022-09-27T11:58:38.743Z,15.43
2022-09-27T12:01:27.042Z,18.90
2022-09-27T12:04:15.441Z,14.70
2022-09-27T12:06:56.289Z,17.37
2022-09-27T12:09:33.380Z,14.70
2022-09-27T12:12:20.852Z,13.10
2022-09-27T12:14:53.996Z,11.30
2022-09-27T12:17:25.756Z,14.23
2022-09-27T12:20:00.202Z,13.67
2022-09-27T12:22:58.545Z,12.47
2022-09-27T12:25:32.143Z,17.50
2022-09-27T12:28:28.102Z,11.10
2022-09-27T12:31:27.500Z,11.10
2022-09-27T12:33:58.810Z,10.20
2022-09-27T12:36:37.417Z,11.80
2022-09-27T12:39:28.834Z,12.90
2022-09-27T12:42:06.151Z,17.60
2022-09-27T12:44:41.187Z,11.17
2022-09-27T12:47:13.464Z,11.27
2022-09-27T12:50:03.263Z,9.00
2022-09-27T12:52:36.479Z,12.93
2022-09-27T12:55:27.843Z,10.97
2022-09-27T12:58:22.878Z,11.57
2022-09-27T13:01:19.781Z,12.73
2022-09-27T13:04:20.597Z,10.27
2022-09-27T13:06:55.724Z,9.10
2022-09-27T13:09:50.313Z,8.63
2022-09-27T13:12:24.920Z,8.03
2022-09-27T13:15:18.113Z,8.57
2022-09-27T13:17:44.930Z,11.23
2022-09-27T13:20:36.748Z,7.70
2022-09-27T13:23:23.486Z,8.00
2022-09-27T13:26:04.017Z,7.10
2022-09-27T13:28:33.561Z,7.37
2022-09-27T13:31:15.355Z,10.93
2022-09-27T13:33:47.880Z,8.30
2022-09-27T13:36:21.656Z,6.73
2022-09-27T13:39:04.762Z,11.20
2022-09-27T13:41:40.115Z,11.53
2022-09-27T13:44:35.541Z,6.40
2022-09-27T13:47:14.504Z,6.50
2022-09-27T13:49:46.725Z,7.40
2022-09-27T13:52:22.145Z,6.83
2022-09-27T13:54:57.033Z,6.60
2022-09-27T13:57:55.637Z,7.20
2022-09-27T14:00:31.248Z,7.43
2022-09-27T14:03:06.638Z,7.80
2022-09-27T14:05:41.418Z,9.90
2022-09-27T14:08:20.270Z,17.03
2022-09-27T14:10:47.970Z,10.53
2022-09-27T14:13:20.348Z,7.27
2022-09-27T14:15:48.091Z,12.23
2022-09-27T14:18:15.113Z,10.13
2022-09-27T14:20:45.610Z,7.47
2022-09-27T14:23:24.664Z,8.40
2022-09-27T14:25:54.068Z,6.87
2022-09-27T14:28:26.785Z,7.50
2022-09-27T14:31:17.782Z,7.33
2022-09-27T14:33:45.621Z,6.70
2022-09-27T14:36:48.733Z,5.77
2022-09-27T14:39:21.790Z,7.30
2022-09-27T14:41:48.894Z,6.67
2022-09-27T14:44:25.900Z,10.00
2022-09-27T14:47:18.482Z,8.63
2022-09-27T14:49:51.184Z,19.70
2022-09-27T14:52:27.836Z,9.47
2022-09-27T14:55:09.481Z,9.17
2022-09-27T14:57:37.305Z,6.50
2022-09-27T15:00:26.284Z,7.70
2022-09-27T15:02:59.056Z,8.00
2022-09-27T15:05:29.443Z,8.40
2022-09-27T15:07:58.558Z,19.47
2022-09-27T15:10:28.429Z,7.90
2022-09-27T15:13:00.035Z,10.80
2022-09-27T15:15:32.989Z,8.70
2022-09-27T15:18:00.445Z,7.97
2022-09-27T15:20:37.087Z,10.20
2022-09-27T15:23:06.097Z,10.13
2022-09-27T15:25:42.438Z,10.90
2022-09-27T15:28:12.233Z,10.50
2022-09-27T15:30:51.066Z,8.73
2022-09-27T15:33:25.198Z,8.93
2022-09-27T15:35:54.406Z,9.93
2022-09-27T15:38:32.682Z,9.10
2022-09-27T15:41:05.662Z,9.73
2022-09-27T15:43:43.036Z,10.37
2022-09-27T15:46:22.304Z,10.03
2022-09-27T15:49:17.320Z,9.90
2022-09-27T15:51:55.307Z,11.67
2022-09-27T15:54:24.136Z,10.30
2022-09-27T15:56:55.532Z,9.23
2022-09-27T15:59:27.872Z,8.80
2022-09-27T16:02:02.045Z,9.37
2022-09-27T16:04:32.603Z,8.30
2022-09-27T16:07:02.289Z,9.40
2022-09-27T16:09:29.843Z,8.47
2022-09-27T16:11:57.369Z,9.13
2022-09-27T16:14:24.199Z,10.27
2022-09-27T16:16:59.226Z,8.30
2022-09-27T16:19:26.259Z,8.63
2022-09-27T16:21:55.760Z,12.67
2022-09-27T16:24:24.358Z,9.03
2022-09-27T16:26:51.360Z,9.07
2022-09-27T16:29:18.303Z,8.70
2022-09-27T16:31:45.816Z,7.60
2022-09-27T16:34:12.905Z,6.83
2022-09-27T16:36:40.747Z,8.37
2022-09-27T16:39:10.640Z,12.83
2022-09-27T16:41:37.428Z,9.03
2022-09-27T16:44:17.493Z,10.30
2022-09-27T16:46:47.971Z,12.77
2022-09-27T16:49:33.353Z,11.87
2022-09-27T16:52:00.248Z,8.00
2022-09-27T16:54:31.159Z,10.23
2022-09-27T16:56:59.424Z,8.93
2022-09-27T16:59:26.668Z,9.00
2022-09-27T17:01:58.098Z,9.80
2022-09-27T17:04:27.478Z,9.60
2022-09-27T17:06:57.892Z,11.10
2022-09-27T17:09:25.103Z,9.30
2022-09-27T17:11:52.226Z,10.30
2022-09-27T17:14:19.365Z,10.97
2022-09-27T17:16:47.494Z,12.10
2022-09-27T17:19:15.859Z,12.70
2022-09-27T17:21:43.598Z,9.83
2022-09-27T17:24:10.686Z,17.70
2022-09-27T17:26:38.004Z,10.53
2022-09-27T17:29:04.815Z,10.47
2022-09-27T17:31:34.211Z,11.67
2022-09-27T17:34:01.943Z,9.03
2022-09-27T17:36:33.976Z,11.90
2022-09-27T17:39:01.748Z,10.67
2022-09-27T17:41:29.666Z,10.73
2022-09-27T17:44:01.521Z,10.23
2022-09-27T17:46:36.282Z,9.63
2022-09-27T17:49:22.117Z,10.87
2022-09-27T17:51:53.466Z,11.47
2022-09-27T17:54:23.434Z,15.70
2022-09-27T17:56:51.360Z,10.43
2022-09-27T17:59:19.030Z,12.20
2022-09-27T18:01:47.824Z,14.67
2022-09-27T18:04:16.579Z,18.43
2022-09-27T18:06:46.264Z,15.23
2022-09-27T18:09:15.214Z,17.57
2022-09-27T18:11:42.087Z,19.03
2022-09-27T18:14:10.687Z,22.67
2022-09-27T18:16:43.029Z,21.50
2022-09-27T18:19:15.646Z,21.67
2022-09-27T18:21:42.956Z,19.23
2022-09-27T18:24:10.928Z,24.13
2022-09-27T18:26:38.969Z,19.13
2022-09-27T18:29:09.821Z,23.00
2022-09-27T18:31:37.771Z,22.07
2022-09-27T18:34:04.567Z,22.80
2022-09-27T18:36:31.501Z,19.10
2022-09-27T18:39:03.558Z,20.93
2022-09-27T18:41:34.091Z,24.67
2022-09-27T18:44:03.377Z,19.07
2022-09-27T18:46:36.733Z,22.90
2022-09-27T18:49:11.596Z,26.90
2022-09-27T18:51:43.620Z,19.23
2022-09-27T18:54:19.346Z,19.80
2022-09-27T18:56:48.372Z,17.37
2022-09-27T18:59:15.845Z,18.63
2022-09-27T19:01:45.867Z,18.90
2022-09-27T19:04:24.044Z,26.43
2022-09-27T19:06:52.751Z,16.63
2022-09-27T19:09:19.803Z,21.70
2022-09-27T19:11:46.812Z,19.13
2022-09-27T19:14:22.409Z,22.93
2022-09-27T19:16:50.531Z,21.60
2022-09-27T19:19:19.221Z,23.13
2022-09-27T19:21:46.890Z,21.57
2022-09-27T19:24:18.931Z,19.13
2022-09-27T19:26:45.888Z,20.17
2022-09-27T19:29:13.712Z,20.60
2022-09-27T19:31:41.549Z,22.50
2022-09-27T19:34:08.367Z,19.57
2022-09-27T19:36:35.194Z,19.73
2022-09-27T19:39:02.464Z,16.93
2022-09-27T19:41:29.382Z,29.10
2022-09-27T19:43:56.873Z,19.63
2022-09-27T19:46:25.513Z,22.97
2022-09-27T19:48:53.133Z,23.90
2022-09-27T19:51:22.389Z,18.00
2022-09-27T19:53:50.582Z,17.67
2022-09-27T19:56:17.869Z,20.60
2022-09-27T19:58:45.497Z,21.90
2022-09-27T20:01:19.284Z,18.90
2022-09-27T20:03:47.339Z,18.63
2022-09-27T20:06:16.412Z,18.27
2022-09-27T20:08:43.947Z,20.57
2022-09-27T20:11:16.077Z,18.00
2022-09-27T20:13:43.730Z,18.07
2022-09-27T20:16:13.193Z,17.97
2022-09-27T20:18:51.311Z,16.90
2022-09-27T20:21:19.352Z,21.90
2022-09-27T20:23:50.030Z,21.50
2022-09-27T20:26:18.946Z,15.33
2022-09-27T20:28:47.806Z,14.30
2022-09-27T20:31:17.294Z,18.37
2022-09-27T20:33:46.399Z,16.57
2022-09-27T20:36:27.873Z,18.90
2022-09-27T20:39:01.918Z,22.07
2022-09-27T20:41:31.841Z,15.80
2022-09-27T20:44:00.929Z,13.93
2022-09-27T20:46:28.070Z,19.80
2022-09-27T20:49:00.482Z,13.63
2022-09-27T20:51:28.783Z,18.20
2022-09-27T20:53:55.755Z,17.20
2022-09-27T20:56:24.041Z,18.90
2022-09-27T20:58:54.991Z,16.00
2022-09-27T21:01:23.272Z,17.27
2022-09-27T21:03:58.320Z,13.30
2022-09-27T21:06:25.349Z,18.10
2022-09-27T21:08:52.361Z,18.10
2022-09-27T21:11:20.230Z,16.37
2022-09-27T21:13:48.569Z,14.07
2022-09-27T21:16:17.943Z,16.43
2022-09-27T21:18:45.260Z,19.50
2022-09-27T21:21:13.668Z,20.03
2022-09-27T21:23:44.745Z,16.57
2022-09-27T21:26:20.396Z,12.17
2022-09-27T21:28:49.232Z,15.57
2022-09-27T21:31:22.507Z,23.00
2022-09-27T21:33:55.104Z,14.67
2022-09-27T21:36:23.465Z,14.73
2022-09-27T21:38:50.712Z,16.33
2022-09-27T21:41:18.000Z,13.10
2022-09-27T21:43:46.372Z,14.97
2022-09-27T21:46:14.285Z,13.97
2022-09-27T21:48:43.156Z,15.93
2022-09-27T21:51:19.160Z,17.20
2022-09-27T21:53:57.259Z,16.67
2022-09-27T21:56:26.327Z,14.70
2022-09-27T21:58:53.150Z,16.67
2022-09-27T22:01:25.710Z,13.33
2022-09-27T22:03:54.276Z,14.30
2022-09-27T22:06:26.637Z,13.77
2022-09-27T22:08:54.822Z,15.67
2022-09-27T22:11:24.637Z,17.73
2022-09-27T22:13:51.742Z,15.40
2022-09-27T22:16:20.715Z,13.97
2022-09-27T22:18:51.933Z,18.80
2022-09-27T22:21:21.782Z,16.63
2022-09-27T22:23:52.827Z,13.20
2022-09-27T22:26:22.443Z,28.73
2022-09-27T22:28:49.297Z,16.03
2022-09-27T22:31:20.712Z,17.97
2022-09-27T22:34:01.257Z,13.53
2022-09-27T22:36:29.529Z,11.83
2022-09-27T22:38:56.520Z,15.70
2022-09-27T22:41:24.292Z,25.10
2022-09-27T22:43:54.518Z,19.97
2022-09-27T22:46:22.172Z,14.50
2022-09-27T22:48:49.864Z,15.70
2022-09-27T22:51:17.530Z,17.40
2022-09-27T22:53:44.523Z,15.30
2022-09-27T22:56:17.659Z,19.10
2022-09-27T22:58:45.368Z,14.10
2022-09-27T23:01:19.046Z,18.63
2022-09-27T23:03:47.192Z,14.33
2022-09-27T23:06:15.948Z,14.93
2022-09-27T23:08:43.466Z,13.17
2022-09-27T23:11:15.391Z,14.50
2022-09-27T23:13:44.002Z,20.33
2022-09-27T23:16:20.277Z,21.70
2022-09-27T23:18:47.881Z,17.87
2022-09-27T23:21:16.141Z,15.60
2022-09-27T23:23:45.199Z,19.13
2022-09-27T23:26:16.322Z,17.53
2022-09-27T23:28:44.264Z,20.70
2022-09-27T23:31:13.911Z,21.80
2022-09-27T23:33:43.393Z,19.60
2022-09-27T23:36:15.222Z,23.80
2022-09-27T23:38:43.489Z,17.73
2022-09-27T23:41:10.284Z,16.90
2022-09-27T23:43:37.209Z,19.80
2022-09-27T23:46:05.380Z,19.20
2022-09-27T23:48:33.986Z,17.57
2022-09-27T23:51:01.619Z,21.53
2022-09-27T23:53:28.770Z,17.10
2022-09-27T23:56:13.008Z,16.00
2022-09-27T23:58:42.142Z,17.10
